Portada
METAR-TAF:

METAR-TAF

Aeroports :

Hómiel, Bielorússia

latitud: 52-31-36N, longitud: 031-01-06E, altitud: 144 m

Observació

L'informe es va fer fa 1 hora i 8 minuts, a les 22:00 UTC
Vent 12 kt del Sud/Sud-Oest
Temperatura -1°C
Humitat 69%
Pressió 1012 hPa
Visibilitat 10 km o més
sense núvols per sota de 1500 mi sense presència de cumulonimbus.

METAR: UMGG 062200Z 21006MPS CAVOK M01/M06 Q1012 R10/D NOSIG

Hora: 02:08 (23:08 UTC)

Pronòstic

L'informe es va fer fa 6 hores i 8 minuts, a les 17:00 UTC
Pronòstic vàlid del 06 a les 18 UTC al 07 a les 18 UTC
Vent 12 kt del Sud/Sud-Oest
Visibilitat 10 km o més
Núvols disperses a una alçada de 1500 ft
Temporalment
l' 06 a les 20 UTC al 07 a les 08 UTC
Visibilitat: 2000 m
Núvols disperses a una alçada de 500 ft
boirina
Temporalment
l' 07 a les 08 UTC al 07 a les 18 UTC
Vent 12 kt del Sud/Sud-Oest amb ràfegues de 21 kt

TAF: UMGG 061700Z 0618/0718 21006MPS 9999 SCT015 TEMPO 0620/0708 2000 BR SCT005 TEMPO 0708/0718 20006G11MPS

Observacions i pronòstics meteorològics de més de 4000 aeroports (METAR i TAF).

Les estacions disponibles són els punts grocs i vermells al mapa.

Posi el ratolí al punt desitjat per veure el nom de l'estació.

Feu clic per veure les observacions i els pronòstics meteorològics.

Per canviar el mapa: feu clic els botons verds amb una creu de color negre per apropar; al botó verd amb un guió per allunyar la imatge; o en les fletxes verdes per a mapes adjacents.


METAR-TAF: